createdAt,value
2022-11-28T00:01:30.368Z,13.93
2022-11-28T00:03:57.223Z,13.57
2022-11-28T00:06:26.966Z,14.83
2022-11-28T00:08:54.590Z,13.77
2022-11-28T00:11:22.830Z,12.70
2022-11-28T00:13:49.862Z,15.03
2022-11-28T00:16:21.437Z,14.97
2022-11-28T00:18:53.468Z,13.00
2022-11-28T00:21:20.649Z,14.50
2022-11-28T00:23:48.585Z,16.20
2022-11-28T00:26:22.763Z,13.10
2022-11-28T00:28:49.626Z,16.37
2022-11-28T00:31:22.266Z,16.70
2022-11-28T00:33:49.417Z,13.67
2022-11-28T00:36:16.420Z,13.83
2022-11-28T00:38:43.062Z,13.27
2022-11-28T00:41:15.501Z,13.80
2022-11-28T00:43:43.908Z,15.70
2022-11-28T00:46:11.439Z,13.20
2022-11-28T00:48:38.004Z,13.90
2022-11-28T00:51:09.235Z,14.60
2022-11-28T00:53:36.905Z,12.83
2022-11-28T00:56:07.781Z,15.10
2022-11-28T00:58:35.621Z,14.00
2022-11-28T01:01:12.007Z,15.27
2022-11-28T01:03:39.109Z,13.70
2022-11-28T01:06:06.763Z,14.90
2022-11-28T01:08:33.770Z,13.80
2022-11-28T01:11:00.596Z,13.00
2022-11-28T01:13:27.269Z,13.30
2022-11-28T01:15:54.162Z,12.17
2022-11-28T01:18:20.623Z,12.17
2022-11-28T01:20:47.146Z,13.40
2022-11-28T01:23:13.675Z,12.70
2022-11-28T01:25:40.127Z,18.80
2022-11-28T01:28:06.630Z,16.67
2022-11-28T01:30:33.789Z,14.57
2022-11-28T01:33:00.237Z,11.20
2022-11-28T01:35:26.659Z,14.30
2022-11-28T01:37:53.188Z,12.50
2022-11-28T01:40:19.730Z,12.77
2022-11-28T01:42:46.169Z,14.93
2022-11-28T01:45:25.141Z,13.23
2022-11-28T01:47:55.032Z,17.20
2022-11-28T01:50:22.668Z,15.80
2022-11-28T01:52:55.232Z,17.70
2022-11-28T01:55:27.204Z,13.10
2022-11-28T01:57:55.601Z,15.00
2022-11-28T02:00:22.931Z,15.10
2022-11-28T02:02:58.885Z,14.07
2022-11-28T02:05:25.554Z,15.20
2022-11-28T02:07:52.522Z,15.90
2022-11-28T02:10:32.550Z,14.30
2022-11-28T02:13:33.212Z,15.23
2022-11-28T02:16:12.352Z,13.70
2022-11-28T02:18:59.152Z,13.63
2022-11-28T02:21:53.440Z,17.13
2022-11-28T02:24:37.968Z,15.00
2022-11-28T02:27:32.099Z,15.77
2022-11-28T02:30:10.746Z,16.40
2022-11-28T02:32:44.966Z,14.10
2022-11-28T02:35:29.047Z,13.37
2022-11-28T02:38:13.883Z,16.03
2022-11-28T02:40:48.383Z,13.83
2022-11-28T02:43:20.630Z,15.93
2022-11-28T02:46:06.705Z,14.47
2022-11-28T02:48:45.783Z,14.07
2022-11-28T02:51:18.988Z,14.50
2022-11-28T02:53:46.582Z,14.90
2022-11-28T02:56:13.279Z,15.90
2022-11-28T02:58:39.974Z,18.57
2022-11-28T03:01:12.434Z,15.80
2022-11-28T03:03:47.944Z,16.23
2022-11-28T03:06:35.451Z,17.57
2022-11-28T03:09:20.581Z,17.70
2022-11-28T03:11:53.287Z,16.87
2022-11-28T03:14:28.364Z,15.83
2022-11-28T03:16:54.748Z,16.57
2022-11-28T03:19:33.225Z,16.50
2022-11-28T03:22:25.901Z,16.87
2022-11-28T03:25:09.397Z,19.00
2022-11-28T03:27:40.617Z,15.47
2022-11-28T03:30:19.402Z,13.33
2022-11-28T03:32:47.843Z,14.80
2022-11-28T03:35:19.359Z,15.90
2022-11-28T03:37:53.849Z,15.57
2022-11-28T03:40:27.823Z,17.50
2022-11-28T03:42:59.465Z,13.37
2022-11-28T03:45:30.326Z,15.50
2022-11-28T03:48:04.880Z,15.87
2022-11-28T03:50:42.048Z,15.07
2022-11-28T03:53:26.062Z,14.27
2022-11-28T03:56:08.010Z,14.70
2022-11-28T03:58:38.060Z,14.80
2022-11-28T04:01:14.316Z,14.33
2022-11-28T04:03:52.075Z,17.17
2022-11-28T04:06:44.589Z,15.77
2022-11-28T04:09:18.205Z,14.57
2022-11-28T04:11:51.837Z,16.50
2022-11-28T04:14:18.191Z,13.60
2022-11-28T04:16:55.666Z,15.97
2022-11-28T04:19:31.967Z,15.00
2022-11-28T04:22:03.388Z,20.90
2022-11-28T04:24:36.518Z,15.90
2022-11-28T04:27:08.545Z,14.83
2022-11-28T04:29:40.746Z,16.13
2022-11-28T04:32:09.209Z,14.00
2022-11-28T04:34:37.030Z,14.37
2022-11-28T04:37:09.820Z,15.30
2022-11-28T04:39:40.759Z,14.27
2022-11-28T04:42:31.024Z,17.93
2022-11-28T04:45:02.685Z,18.37
2022-11-28T04:47:29.733Z,14.33
2022-11-28T04:49:56.486Z,18.10
2022-11-28T04:52:27.884Z,16.30
2022-11-28T04:55:00.839Z,14.23
2022-11-28T04:57:34.127Z,16.33
2022-11-28T05:00:04.617Z,15.93
2022-11-28T05:02:32.710Z,15.70
2022-11-28T05:04:59.874Z,14.77
2022-11-28T05:07:26.333Z,16.10
2022-11-28T05:09:52.913Z,17.30
2022-11-28T05:12:19.396Z,14.77
2022-11-28T05:14:45.846Z,21.20
2022-11-28T05:17:13.166Z,17.50
2022-11-28T05:19:39.720Z,16.57
2022-11-28T05:22:06.415Z,17.40
2022-11-28T05:24:32.864Z,15.77
2022-11-28T05:26:59.287Z,15.60
2022-11-28T05:29:25.700Z,16.57
2022-11-28T05:31:52.189Z,15.53
2022-11-28T05:34:18.701Z,15.87
2022-11-28T05:36:45.127Z,15.83
2022-11-28T05:39:11.539Z,16.10
2022-11-28T05:41:37.984Z,18.47
2022-11-28T05:44:04.476Z,15.13
2022-11-28T05:46:30.901Z,22.50
2022-11-28T05:48:57.760Z,13.93
2022-11-28T05:51:24.453Z,16.87
2022-11-28T05:53:51.032Z,15.10
2022-11-28T05:56:18.849Z,18.10
2022-11-28T05:58:45.754Z,19.67
2022-11-28T06:01:31.805Z,16.83
2022-11-28T06:04:01.080Z,15.60
2022-11-28T06:06:29.933Z,18.73
2022-11-28T06:08:56.990Z,16.33
2022-11-28T06:11:26.147Z,16.10
2022-11-28T06:13:53.139Z,21.00
2022-11-28T06:16:27.841Z,19.83
2022-11-28T06:19:00.531Z,15.90
2022-11-28T06:21:29.245Z,16.63
2022-11-28T06:23:57.872Z,17.07
2022-11-28T06:26:25.911Z,18.00
2022-11-28T06:28:52.414Z,16.20
2022-11-28T06:31:24.589Z,15.70
2022-11-28T06:33:51.273Z,17.63
2022-11-28T06:36:19.040Z,15.90
2022-11-28T06:38:45.992Z,16.23
2022-11-28T06:41:15.124Z,15.33
2022-11-28T06:43:41.941Z,18.00
2022-11-28T06:46:16.140Z,21.47
2022-11-28T06:48:42.873Z,18.73
2022-11-28T06:51:09.440Z,16.10
2022-11-28T06:53:36.433Z,16.47
2022-11-28T06:56:14.242Z,17.60
2022-11-28T06:58:41.628Z,15.13
2022-11-28T07:01:14.537Z,16.10
2022-11-28T07:03:41.597Z,22.70
2022-11-28T07:06:09.054Z,15.63
2022-11-28T07:08:36.419Z,15.30
2022-11-28T07:11:11.279Z,16.57
2022-11-28T07:13:38.584Z,18.00
2022-11-28T07:16:05.634Z,17.90
2022-11-28T07:18:32.315Z,17.47
2022-11-28T07:20:58.944Z,16.73
2022-11-28T07:23:25.707Z,18.10
2022-11-28T07:25:58.478Z,20.93
2022-11-28T07:28:24.927Z,22.77
2022-11-28T07:31:00.699Z,17.70
2022-11-28T07:33:27.655Z,14.73
2022-11-28T07:35:54.138Z,16.50
2022-11-28T07:38:20.769Z,15.80
2022-11-28T07:40:47.194Z,28.43
2022-11-28T07:43:13.641Z,24.90
2022-11-28T07:45:59.334Z,28.30
2022-11-28T07:48:26.513Z,30.67
2022-11-28T07:50:52.989Z,29.00
2022-11-28T07:53:19.498Z,27.60
2022-11-28T07:55:46.013Z,29.93
2022-11-28T07:58:12.465Z,24.57
2022-11-28T08:00:38.980Z,21.23
2022-11-28T08:03:05.628Z,15.83
2022-11-28T08:05:33.076Z,16.63
2022-11-28T08:07:59.559Z,18.50
2022-11-28T08:10:26.232Z,17.13
2022-11-28T08:12:52.742Z,17.43
2022-11-28T08:15:19.169Z,20.03
2022-11-28T08:17:45.739Z,17.13
2022-11-28T08:20:12.496Z,21.40
2022-11-28T08:22:38.975Z,15.37
2022-11-28T08:25:05.772Z,14.90
2022-11-28T08:27:32.994Z,16.13
2022-11-28T08:29:59.433Z,14.40
2022-11-28T08:32:25.905Z,17.50
2022-11-28T08:34:52.385Z,31.70
2022-11-28T08:37:18.880Z,19.20
2022-11-28T08:39:45.627Z,23.13
2022-11-28T08:42:14.398Z,19.30
2022-11-28T08:44:40.778Z,23.87
2022-11-28T08:47:07.206Z,30.13
2022-11-28T08:49:36.506Z,28.20
2022-11-28T08:52:04.642Z,28.53
2022-11-28T08:54:31.565Z,19.13
2022-11-28T08:56:58.986Z,15.23
2022-11-28T08:59:25.444Z,14.50
2022-11-28T09:01:55.426Z,16.57
2022-11-28T09:04:23.793Z,14.80
2022-11-28T09:06:51.037Z,19.13
2022-11-28T09:09:17.676Z,23.90
2022-11-28T09:11:44.632Z,19.50
2022-11-28T09:14:11.511Z,17.50
2022-11-28T09:16:39.826Z,15.03
2022-11-28T09:19:09.085Z,15.20
2022-11-28T09:21:35.605Z,16.70
2022-11-28T09:24:02.060Z,15.43
2022-11-28T09:26:29.867Z,18.37
2022-11-28T09:28:56.347Z,16.53
2022-11-28T09:31:23.227Z,18.40
2022-11-28T09:33:49.838Z,15.17
2022-11-28T09:36:19.621Z,16.17
2022-11-28T09:38:46.272Z,18.63
2022-11-28T09:41:53.841Z,17.70
2022-11-28T09:44:29.258Z,16.17
2022-11-28T09:47:00.397Z,15.30
2022-11-28T09:49:40.592Z,16.37
2022-11-28T09:52:07.589Z,18.27
2022-11-28T09:54:48.030Z,19.70
2022-11-28T09:57:39.534Z,16.50
2022-11-28T10:00:16.799Z,19.20
2022-11-28T10:02:52.480Z,16.87
2022-11-28T10:05:36.105Z,17.47
2022-11-28T10:08:32.076Z,21.80
2022-11-28T10:11:05.004Z,15.43
2022-11-28T10:14:08.806Z,15.50
2022-11-28T10:17:10.986Z,16.57
2022-11-28T10:19:54.184Z,18.80
2022-11-28T10:22:33.935Z,17.70
2022-11-28T10:25:06.205Z,19.50
2022-11-28T10:27:36.156Z,16.37
2022-11-28T10:30:07.784Z,15.97
2022-11-28T10:32:42.389Z,18.13
2022-11-28T10:35:30.654Z,14.60
2022-11-28T10:37:57.208Z,18.53
2022-11-28T10:40:49.497Z,15.03
2022-11-28T10:43:34.489Z,21.57
2022-11-28T10:46:16.227Z,17.00
2022-11-28T10:49:02.933Z,18.17
2022-11-28T10:51:55.265Z,18.33
2022-11-28T10:54:52.896Z,19.40
2022-11-28T10:57:39.763Z,15.63
2022-11-28T11:00:12.367Z,16.23
2022-11-28T11:02:58.693Z,17.20
2022-11-28T11:05:28.218Z,20.23
2022-11-28T11:08:14.993Z,18.77
2022-11-28T11:11:00.045Z,17.43
2022-11-28T11:13:30.065Z,16.70
2022-11-28T11:16:03.415Z,21.10
2022-11-28T11:18:46.670Z,16.30
2022-11-28T11:21:17.221Z,18.43
2022-11-28T11:23:44.942Z,21.97
2022-11-28T11:26:25.655Z,17.93
2022-11-28T11:28:52.650Z,16.60
2022-11-28T11:31:27.844Z,17.50
2022-11-28T11:34:07.050Z,17.90
2022-11-28T11:36:36.278Z,16.23
2022-11-28T11:39:12.269Z,19.20
2022-11-28T11:41:44.118Z,15.80
2022-11-28T11:44:13.761Z,18.93
2022-11-28T11:47:00.870Z,19.30
2022-11-28T11:49:38.776Z,19.97
2022-11-28T11:52:19.931Z,18.93
2022-11-28T11:54:54.673Z,16.67
2022-11-28T11:57:45.815Z,19.17
2022-11-28T12:00:19.818Z,18.90
2022-11-28T12:02:51.970Z,20.73
2022-11-28T12:05:28.708Z,20.07
2022-11-28T12:08:03.372Z,16.13
2022-11-28T12:10:34.348Z,18.67
2022-11-28T12:13:02.672Z,15.23
2022-11-28T12:15:47.068Z,18.13
2022-11-28T12:18:52.042Z,21.80
2022-11-28T12:21:56.623Z,18.90
2022-11-28T12:24:34.001Z,26.60
2022-11-28T12:27:20.885Z,21.13
2022-11-28T12:30:06.031Z,19.47
2022-11-28T12:32:45.422Z,20.53
2022-11-28T12:35:40.061Z,18.03
2022-11-28T12:38:37.509Z,20.07
2022-11-28T12:41:37.175Z,17.47
2022-11-28T12:44:25.838Z,18.50
2022-11-28T12:47:38.962Z,16.80
2022-11-28T12:50:22.075Z,17.20
2022-11-28T12:53:14.874Z,17.53
2022-11-28T12:56:07.573Z,17.60
2022-11-28T12:58:36.398Z,17.43
2022-11-28T13:01:03.237Z,21.20
2022-11-28T13:03:55.334Z,16.03
2022-11-28T13:06:31.501Z,14.97
2022-11-28T13:09:18.954Z,16.67
2022-11-28T13:12:10.171Z,17.93
2022-11-28T13:14:42.565Z,20.70
2022-11-28T13:17:39.032Z,16.47
2022-11-28T13:20:23.590Z,18.40
2022-11-28T13:23:17.957Z,20.53
2022-11-28T13:26:02.531Z,16.73
2022-11-28T13:28:54.361Z,17.83
2022-11-28T13:31:24.432Z,19.30
2022-11-28T13:33:54.261Z,19.90
2022-11-28T13:39:40.187Z,16.77
2022-11-28T13:42:59.600Z,16.40
2022-11-28T13:45:25.144Z,17.77
2022-11-28T13:47:55.742Z,15.33
2022-11-28T13:50:22.913Z,15.37
2022-11-28T13:52:59.591Z,16.40
2022-11-28T13:56:07.206Z,17.00
2022-11-28T13:59:02.609Z,15.87
2022-11-28T14:01:31.914Z,16.03
2022-11-28T14:03:58.865Z,18.40
2022-11-28T14:06:27.735Z,14.90
2022-11-28T14:09:02.502Z,15.73
2022-11-28T14:11:41.197Z,16.03
2022-11-28T14:14:13.680Z,18.10
2022-11-28T14:16:40.170Z,13.87
2022-11-28T14:19:27.873Z,14.37
2022-11-28T14:22:09.056Z,16.77
2022-11-28T14:24:54.806Z,16.00
2022-11-28T14:27:26.430Z,15.90
2022-11-28T14:29:55.786Z,14.40
2022-11-28T14:32:36.956Z,13.07
2022-11-28T14:35:25.099Z,13.77
2022-11-28T14:37:55.089Z,15.63
2022-11-28T14:40:56.285Z,14.17
2022-11-28T14:43:28.365Z,14.30
2022-11-28T14:46:15.194Z,13.37
2022-11-28T14:49:02.708Z,14.23
2022-11-28T14:51:49.127Z,14.13
2022-11-28T14:54:42.371Z,16.30
2022-11-28T14:57:23.352Z,14.30
2022-11-28T14:59:51.091Z,15.03
2022-11-28T15:02:56.335Z,15.33
2022-11-28T15:05:29.820Z,14.90
2022-11-28T15:08:15.006Z,14.97
2022-11-28T15:11:02.745Z,16.07
2022-11-28T15:13:45.970Z,13.60
2022-11-28T15:16:14.718Z,13.60
2022-11-28T15:18:50.649Z,18.63
2022-11-28T15:21:19.623Z,18.27
2022-11-28T15:23:49.267Z,14.33
2022-11-28T15:26:22.082Z,14.40
2022-11-28T15:28:48.615Z,14.00
2022-11-28T15:31:23.108Z,16.97
2022-11-28T15:33:51.253Z,17.17
2022-11-28T15:36:38.256Z,16.43
2022-11-28T15:39:05.189Z,14.90
2022-11-28T15:41:31.766Z,18.27
2022-11-28T15:43:58.387Z,19.30
2022-11-28T15:46:34.723Z,17.20
2022-11-28T15:49:01.769Z,21.13
2022-11-28T15:51:31.375Z,22.33
2022-11-28T15:53:58.539Z,18.70
2022-11-28T15:56:26.005Z,19.10
2022-11-28T15:58:53.479Z,24.47
2022-11-28T16:01:24.096Z,18.60
2022-11-28T16:03:59.262Z,16.97
2022-11-28T16:06:30.553Z,17.10
2022-11-28T16:09:03.897Z,20.90
2022-11-28T16:11:31.629Z,24.00
2022-11-28T16:14:05.978Z,19.80
2022-11-28T16:16:36.475Z,19.93
2022-11-28T16:19:18.658Z,18.17
2022-11-28T16:21:56.057Z,23.70
2022-11-28T16:24:42.767Z,21.53
2022-11-28T16:27:31.566Z,20.60
2022-11-28T16:29:58.033Z,21.20
2022-11-28T16:32:37.932Z,18.83
2022-11-28T16:35:06.040Z,17.00
2022-11-28T16:37:33.023Z,20.53
2022-11-28T16:39:59.400Z,18.03
2022-11-28T16:42:25.915Z,19.33
2022-11-28T16:44:52.535Z,25.77
2022-11-28T16:47:29.660Z,18.83
2022-11-28T16:50:22.997Z,20.60
2022-11-28T16:52:52.139Z,18.80
2022-11-28T16:55:31.799Z,26.13
2022-11-28T16:58:07.379Z,26.77
2022-11-28T17:00:35.243Z,20.43
2022-11-28T17:03:01.976Z,28.70
2022-11-28T17:05:28.679Z,21.93
2022-11-28T17:07:55.515Z,23.03
2022-11-28T17:10:22.096Z,25.20
2022-11-28T17:12:48.637Z,25.70
2022-11-28T17:15:18.780Z,24.37
2022-11-28T17:17:45.205Z,21.90
2022-11-28T17:20:12.704Z,21.03
2022-11-28T17:22:45.364Z,22.60
2022-11-28T17:25:17.058Z,23.00
2022-11-28T17:27:43.868Z,23.17
2022-11-28T17:30:15.483Z,23.07
2022-11-28T17:32:41.992Z,26.10
2022-11-28T17:35:19.869Z,29.57
2022-11-28T17:37:46.307Z,26.80
2022-11-28T17:40:31.346Z,23.03
2022-11-28T17:42:57.820Z,33.00
2022-11-28T17:45:25.442Z,25.13
2022-11-28T17:47:51.945Z,23.10
2022-11-28T17:50:18.477Z,29.77
2022-11-28T17:52:44.926Z,30.50
2022-11-28T17:55:11.373Z,29.87
2022-11-28T17:57:37.905Z,29.53
2022-11-28T18:00:06.703Z,29.30
2022-11-28T18:02:33.199Z,30.10
2022-11-28T18:05:00.509Z,27.93
2022-11-28T18:07:27.047Z,22.20
2022-11-28T18:09:53.686Z,27.13
2022-11-28T18:12:21.075Z,25.03
2022-11-28T18:14:47.580Z,27.73
2022-11-28T18:17:14.135Z,28.40
2022-11-28T18:19:40.628Z,24.33
2022-11-28T18:22:08.573Z,24.87
2022-11-28T18:24:36.189Z,34.37
2022-11-28T18:27:02.761Z,31.33
2022-11-28T18:29:29.220Z,36.50
2022-11-28T18:31:55.694Z,25.87
2022-11-28T18:34:22.349Z,24.70
2022-11-28T18:36:48.869Z,29.27
2022-11-28T18:39:15.816Z,25.70
2022-11-28T18:41:42.789Z,26.53
2022-11-28T18:44:10.966Z,26.67
2022-11-28T18:46:39.195Z,24.93
2022-11-28T18:49:05.756Z,27.57
2022-11-28T18:51:34.493Z,22.77
2022-11-28T18:54:04.486Z,23.07
2022-11-28T18:56:31.533Z,27.70
2022-11-28T18:58:58.408Z,27.53
2022-11-28T19:01:32.752Z,30.43
2022-11-28T19:04:04.007Z,26.80
2022-11-28T19:06:31.575Z,26.97
2022-11-28T19:09:01.143Z,35.17
2022-11-28T19:11:29.483Z,28.33
2022-11-28T19:13:56.614Z,28.33
2022-11-28T19:16:26.137Z,33.53
2022-11-28T19:18:53.262Z,26.20
2022-11-28T19:21:22.656Z,30.87
2022-11-28T19:23:50.221Z,26.67
2022-11-28T19:26:19.615Z,28.10
2022-11-28T19:28:46.934Z,28.63
2022-11-28T19:31:21.743Z,25.47
2022-11-28T19:34:13.879Z,27.00
2022-11-28T19:36:51.242Z,26.70
2022-11-28T19:39:19.495Z,25.07
2022-11-28T19:41:46.765Z,26.90
2022-11-28T19:44:14.360Z,24.97
2022-11-28T19:46:41.930Z,27.47
2022-11-28T19:49:14.300Z,30.60
2022-11-28T19:51:40.853Z,24.87
2022-11-28T19:54:07.449Z,23.60
2022-11-28T19:56:34.344Z,26.60
2022-11-28T19:59:00.836Z,29.10
2022-11-28T20:01:28.308Z,27.20
2022-11-28T20:03:54.969Z,35.03
2022-11-28T20:06:28.175Z,28.57
2022-11-28T20:08:59.389Z,30.87
2022-11-28T20:11:31.996Z,28.77
2022-11-28T20:14:01.171Z,29.97
2022-11-28T20:16:29.787Z,25.30
2022-11-28T20:18:56.999Z,28.70
2022-11-28T20:21:23.695Z,28.13
2022-11-28T20:23:52.654Z,26.67
2022-11-28T20:26:21.443Z,24.33
2022-11-28T20:28:48.510Z,34.87
2022-11-28T20:31:22.673Z,25.47
2022-11-28T20:33:51.150Z,25.33
2022-11-28T20:36:20.366Z,28.27
2022-11-28T20:38:47.378Z,24.70
2022-11-28T20:41:16.534Z,30.27
2022-11-28T20:43:43.472Z,24.60
2022-11-28T20:46:16.761Z,36.10
2022-11-28T20:48:45.827Z,30.67
2022-11-28T20:51:15.907Z,25.23
2022-11-28T20:53:42.635Z,25.70
2022-11-28T20:56:13.364Z,27.33
2022-11-28T20:58:42.860Z,28.73
2022-11-28T21:01:14.889Z,31.17
2022-11-28T21:03:41.710Z,29.13
2022-11-28T21:06:11.300Z,35.33
2022-11-28T21:08:38.663Z,30.37
2022-11-28T21:11:10.931Z,31.63
2022-11-28T21:13:37.770Z,27.97
2022-11-28T21:16:09.699Z,27.10
2022-11-28T21:18:38.053Z,26.50
2022-11-28T21:21:11.930Z,28.07
2022-11-28T21:23:39.000Z,28.40
2022-11-28T21:26:08.798Z,26.77
2022-11-28T21:28:41.254Z,28.33
2022-11-28T21:31:10.853Z,33.37
2022-11-28T21:33:37.468Z,24.80
2022-11-28T21:36:06.129Z,33.20
2022-11-28T21:38:33.255Z,25.57
2022-11-28T21:41:00.665Z,29.53
2022-11-28T21:43:31.373Z,29.00
2022-11-28T21:46:05.606Z,31.00
2022-11-28T21:48:33.399Z,33.03
2022-11-28T21:51:00.835Z,26.67
2022-11-28T21:53:28.438Z,28.40
2022-11-28T21:55:55.545Z,30.50
2022-11-28T21:58:26.676Z,25.10
2022-11-28T22:01:01.885Z,30.87
2022-11-28T22:03:30.431Z,23.77
2022-11-28T22:06:05.147Z,30.70
2022-11-28T22:08:32.218Z,27.97
2022-11-28T22:11:03.634Z,27.77
2022-11-28T22:13:31.583Z,26.23
2022-11-28T22:15:58.496Z,25.80
2022-11-28T22:18:25.002Z,24.43
2022-11-28T22:20:53.203Z,25.90
2022-11-28T22:23:19.773Z,35.23
2022-11-28T22:25:53.107Z,47.87
2022-11-28T22:28:20.350Z,38.40
2022-11-28T22:30:47.256Z,27.67
2022-11-28T22:33:13.708Z,26.70
2022-11-28T22:35:40.252Z,32.90
2022-11-28T22:38:06.747Z,27.53
2022-11-28T22:40:33.161Z,28.00
2022-11-28T22:43:00.010Z,29.47
2022-11-28T22:45:26.571Z,27.40
2022-11-28T22:47:53.002Z,26.33
2022-11-28T22:50:19.511Z,27.30
2022-11-28T22:52:46.029Z,35.43
2022-11-28T22:55:12.719Z,29.90
2022-11-28T22:57:39.234Z,37.63
2022-11-28T23:00:08.789Z,36.80
2022-11-28T23:02:35.956Z,28.03
2022-11-28T23:05:02.633Z,30.03
2022-11-28T23:07:29.250Z,30.17
2022-11-28T23:09:55.840Z,27.00
2022-11-28T23:12:22.288Z,28.97
2022-11-28T23:14:49.053Z,26.30
2022-11-28T23:17:15.587Z,26.90
2022-11-28T23:19:42.388Z,34.07
2022-11-28T23:22:08.872Z,32.87
2022-11-28T23:24:35.505Z,26.43
2022-11-28T23:27:01.945Z,27.73
2022-11-28T23:29:28.406Z,29.50
2022-11-28T23:31:54.914Z,31.13
2022-11-28T23:34:21.457Z,36.27
2022-11-28T23:36:48.430Z,27.20
2022-11-28T23:39:17.711Z,30.47
2022-11-28T23:41:45.574Z,29.27
2022-11-28T23:44:13.684Z,26.07
2022-11-28T23:46:41.019Z,25.00
2022-11-28T23:49:07.699Z,23.70
2022-11-28T23:51:34.490Z,28.37
2022-11-28T23:54:01.077Z,33.10
2022-11-28T23:56:30.978Z,31.37
2022-11-28T23:59:00.997Z,30.10
